Terminal Aerodrome Forecast
Issued by NWS

Home | Current Version | Previous Version | Text Only | Print | Product List | Glossary On
Versions: 1 2 3 4 5 6 7 8 9 10 11 12 13 14 15 16 17 18 19 20 21 22 23 24 25 26 27 28 29 30 31 32 33
000
FTUS46 KOTX 251907 AAA
TAFSFF
TAF AMD
KSFF 251907Z 2519/2618 08003KT 1/4SM FZFG VCFG VV002
     FM252100 00000KT 3SM BR SCT003
     FM252200 28003KT P6SM SCT003
     FM260300 26003KT P6SM BKN070
     FM260900 00000KT P6SM BKN009=

USA.gov is the U.S. government's official web portal to all federal, state and local government web resources and services.